Time;durP1;ratioP1;P1;durP2;ratioP2;P2;SDS_P1;SDS_P2;PMS_P1;PMS_P2;Temp;Humidity;BMP_temperature;BMP_pressure;BME280_temperature;BME280_humidity;BME280_pressure;Samples;Min_cycle;Max_cycle;Signal;HPM_P1;HPM_P2
2020/12/31 00:01:43;;;;;;;3.55;2.70;;;16.80;46.30;;;;;;5804339;24;20162;-83
2020/12/31 00:04:23;;;;;;;3.83;2.60;;;16.80;46.40;;;;;;5859148;24;20183;-83
2020/12/31 00:06:51;;;;;;;3.35;2.60;;;16.80;46.50;;;;;;5836607;24;20151;-82
2020/12/31 00:09:24;;;;;;;4.07;3.08;;;16.80;46.60;;;;;;5859522;24;20165;-83
2020/12/31 00:12:20;;;;;;;3.75;2.97;;;16.80;46.50;;;;;;5859190;24;20143;-83
2020/12/31 00:15:14;;;;;;;3.85;3.03;;;16.80;46.50;;;;;;5897677;23;20155;-83
2020/12/31 00:18:06;;;;;;;3.53;2.83;;;16.70;46.50;;;;;;6071473;23;20520;-83
2020/12/31 00:21:04;;;;;;;3.40;2.70;;;16.80;46.50;;;;;;6087333;23;20174;-82
2020/12/31 00:23:34;;;;;;;3.40;2.78;;;16.80;46.50;;;;;;6112878;23;20176;-83
2020/12/31 00:26:07;;;;;;;3.55;2.90;;;16.70;46.40;;;;;;6063665;23;20252;-83
2020/12/31 00:29:06;;;;;;;3.40;2.95;;;16.70;46.50;;;;;;6063624;23;20152;-82
2020/12/31 00:32:02;;;;;;;4.05;2.63;;;16.80;46.60;;;;;;6088427;23;20161;-83
2020/12/31 00:34:58;;;;;;;3.17;2.45;;;16.80;46.50;;;;;;6065367;23;20529;-83
2020/12/31 00:37:45;;;;;;;4.00;3.08;;;16.70;46.60;;;;;;6063242;23;20163;-83
2020/12/31 00:40:38;;;;;;;3.33;2.70;;;16.80;46.50;;;;;;6062975;23;20160;-83
2020/12/31 00:43:09;;;;;;;3.53;2.92;;;16.80;46.50;;;;;;6086960;23;20215;-83
2020/12/31 00:45:40;;;;;;;3.40;2.67;;;16.80;46.50;;;;;;6040329;23;20145;-83
2020/12/31 00:48:42;;;;;;;3.60;2.90;;;16.80;46.50;;;;;;6063088;23;20145;-83
2020/12/31 00:51:54;;;;;;;3.50;2.70;;;16.80;46.50;;;;;;6023566;23;20180;-83
2020/12/31 00:54:42;;;;;;;3.47;2.65;;;16.80;46.50;;;;;;6021163;23;20616;-83
2020/12/31 00:57:30;;;;;;;3.65;2.90;;;16.80;46.60;;;;;;6024416;23;20162;-83
2020/12/31 01:00:26;;;;;;;4.07;2.75;;;16.70;46.60;;;;;;6000920;23;20147;-83
2020/12/31 01:03:38;;;;;;;4.38;3.33;;;16.70;46.70;;;;;;6001577;23;20185;-83
2020/12/31 01:06:08;;;;;;;3.30;2.75;;;16.70;46.70;;;;;;6023896;23;20563;-83
2020/12/31 01:09:00;;;;;;;3.50;2.70;;;16.70;46.60;;;;;;6000927;23;20139;-83
2020/12/31 01:11:28;;;;;;;3.28;2.72;;;16.70;46.70;;;;;;6023523;23;20175;-83
2020/12/31 01:14:18;;;;;;;3.05;2.60;;;16.70;46.60;;;;;;5977120;23;20241;-83
2020/12/31 01:16:52;;;;;;;3.10;2.67;;;16.70;46.80;;;;;;6041704;23;20189;-84
2020/12/31 01:19:25;;;;;;;3.78;2.80;;;16.70;46.70;;;;;;5981913;23;20157;-83
2020/12/31 01:22:13;;;;;;;3.65;2.85;;;16.70;46.60;;;;;;6027173;23;20162;-83
2020/12/31 01:24:42;;;;;;;4.07;2.78;;;16.70;46.70;;;;;;6029475;23;20242;-83
2020/12/31 01:27:39;;;;;;;3.38;2.67;;;16.70;46.80;;;;;;6090103;23;20148;-83
2020/12/31 01:30:49;;;;;;;2.95;2.47;;;16.70;46.80;;;;;;6115977;23;20144;-83
2020/12/31 01:33:34;;;;;;;3.17;2.88;;;16.70;46.80;;;;;;6121059;23;20128;-84
2020/12/31 01:36:20;;;;;;;4.00;3.10;;;16.80;46.70;;;;;;6116899;23;20166;-83
2020/12/31 01:38:56;;;;;;;3.70;3.00;;;16.80;46.70;;;;;;6090927;23;20203;-83
2020/12/31 01:41:40;;;;;;;3.55;2.78;;;16.70;46.70;;;;;;6092263;23;20216;-83
2020/12/31 01:44:26;;;;;;;3.55;2.75;;;16.70;46.70;;;;;;6115459;23;20191;-83
2020/12/31 01:47:15;;;;;;;3.22;2.63;;;16.70;46.80;;;;;;6141550;23;20143;-83
2020/12/31 01:50:11;;;;;;;3.83;2.80;;;16.70;46.80;;;;;;6115471;23;20133;-84
2020/12/31 01:52:45;;;;;;;3.00;2.55;;;16.70;46.90;;;;;;6115750;23;20151;-83
2020/12/31 01:55:32;;;;;;;3.38;2.65;;;16.60;46.90;;;;;;6115568;23;20140;-83
2020/12/31 01:58:08;;;;;;;3.38;2.53;;;16.70;46.80;;;;;;6115568;23;20182;-83
2020/12/31 02:00:53;;;;;;;3.97;2.63;;;16.70;46.90;;;;;;6115709;23;20136;-83
2020/12/31 02:04:19;;;;;;;3.25;2.75;;;16.70;46.80;;;;;;6091982;23;20171;-84
2020/12/31 02:07:00;;;;;;;2.95;2.60;;;16.70;46.90;;;;;;6071874;23;20148;-83
2020/12/31 02:09:32;;;;;;;3.67;2.80;;;16.70;46.90;;;;;;6116000;23;20128;-83
2020/12/31 02:12:14;;;;;;;3.63;2.63;;;16.70;46.80;;;;;;6115629;23;20148;-82
2020/12/31 02:15:03;;;;;;;3.85;2.70;;;16.70;46.90;;;;;;6091875;23;20216;-83
2020/12/31 02:18:02;;;;;;;3.42;2.63;;;16.70;46.90;;;;;;6091594;23;20199;-83
2020/12/31 02:20:50;;;;;;;3.22;2.70;;;16.70;46.90;;;;;;6000463;23;20166;-83
2020/12/31 02:23:31;;;;;;;3.35;2.60;;;16.70;46.90;;;;;;6021450;23;20163;-83
2020/12/31 02:26:07;;;;;;;3.58;3.00;;;16.70;46.90;;;;;;6000792;23;20147;-83
2020/12/31 02:28:38;;;;;;;3.45;2.80;;;16.70;46.80;;;;;;6000652;23;20141;-83
2020/12/31 02:31:11;;;;;;;3.40;2.85;;;16.70;46.90;;;;;;5999835;23;20151;-83
2020/12/31 02:33:55;;;;;;;3.42;2.65;;;16.60;46.90;;;;;;5977225;23;20690;-82
2020/12/31 02:36:29;;;;;;;3.10;2.60;;;16.70;46.90;;;;;;6000026;23;20143;-83
2020/12/31 02:39:27;;;;;;;3.45;2.60;;;16.70;47.00;;;;;;5999955;23;20147;-83
2020/12/31 02:42:07;;;;;;;4.15;3.10;;;16.60;47.00;;;;;;6004269;23;20146;-83
2020/12/31 02:44:52;;;;;;;3.28;2.53;;;16.70;47.00;;;;;;6001816;23;20189;-83
2020/12/31 02:47:33;;;;;;;3.10;2.60;;;16.60;47.00;;;;;;6001971;23;20158;-83
2020/12/31 02:50:33;;;;;;;3.35;2.60;;;16.60;46.90;;;;;;6002474;23;20154;-83
2020/12/31 02:53:06;;;;;;;3.10;2.58;;;16.60;47.10;;;;;;6025091;23;20187;-83
2020/12/31 02:55:52;;;;;;;3.35;2.55;;;16.60;47.00;;;;;;6001957;23;20506;-83
2020/12/31 02:58:52;;;;;;;3.35;2.55;;;16.70;46.90;;;;;;6140178;23;20180;-83
2020/12/31 03:01:29;;;;;;;3.13;2.70;;;16.60;46.90;;;;;;6030144;23;20205;-83
2020/12/31 03:04:09;;;;;;;4.32;3.13;;;16.60;47.00;;;;;;6006642;23;20229;-83
2020/12/31 03:06:55;;;;;;;3.30;2.50;;;16.60;47.00;;;;;;6028648;23;20158;-83
2020/12/31 03:09:31;;;;;;;3.25;2.70;;;16.60;47.10;;;;;;6029568;23;20158;-82
2020/12/31 03:12:25;;;;;;;3.60;2.63;;;16.60;47.00;;;;;;6029589;23;20150;-83
2020/12/31 03:15:07;;;;;;;3.00;2.35;;;16.70;47.00;;;;;;6030690;23;20339;-83
2020/12/31 03:17:40;;;;;;;3.58;2.80;;;16.60;47.10;;;;;;6031430;23;20194;-83
2020/12/31 03:20:12;;;;;;;3.33;2.42;;;16.60;47.10;;;;;;6005674;23;20149;-83
2020/12/31 03:22:50;;;;;;;3.60;2.72;;;16.60;47.00;;;;;;6029635;23;20182;-83
2020/12/31 03:25:26;;;;;;;2.83;2.53;;;16.60;46.90;;;;;;6029742;23;20181;-83
2020/12/31 03:28:32;;;;;;;3.03;2.25;;;16.70;47.00;;;;;;6054031;23;20153;-83
2020/12/31 03:31:30;;;;;;;3.05;2.47;;;16.60;47.10;;;;;;6030381;23;20189;-83
2020/12/31 03:34:00;;;;;;;3.00;2.40;;;16.60;47.10;;;;;;6053499;23;20158;-83
2020/12/31 03:37:02;;;;;;;3.45;2.63;;;16.60;47.10;;;;;;6030265;23;20174;-83
2020/12/31 03:39:38;;;;;;;3.67;2.83;;;16.50;47.10;;;;;;6070000;23;20171;-83
2020/12/31 03:42:19;;;;;;;2.80;2.40;;;16.60;47.20;;;;;;6092699;23;20239;-83
2020/12/31 03:44:59;;;;;;;3.70;2.55;;;16.60;47.20;;;;;;6117232;23;20175;-83
2020/12/31 03:47:30;;;;;;;3.90;2.75;;;16.60;47.10;;;;;;6142935;23;20129;-83
2020/12/31 03:50:34;;;;;;;3.20;2.55;;;16.60;47.20;;;;;;6068977;23;20155;-83
2020/12/31 03:53:30;;;;;;;3.45;2.60;;;16.60;47.30;;;;;;6002521;23;20190;-83
2020/12/31 03:56:05;;;;;;;3.67;2.50;;;16.60;47.10;;;;;;6024588;23;20154;-83
2020/12/31 03:58:48;;;;;;;3.22;2.33;;;16.60;47.10;;;;;;6000712;23;20215;-83
2020/12/31 04:01:33;;;;;;;2.58;2.35;;;16.60;47.10;;;;;;6000731;23;20211;-83
2020/12/31 04:04:09;;;;;;;3.50;2.58;;;16.60;47.10;;;;;;6002574;23;20181;-83
2020/12/31 04:06:54;;;;;;;2.78;2.45;;;16.60;47.10;;;;;;6001307;23;20134;-83
2020/12/31 04:09:35;;;;;;;3.90;2.63;;;16.60;47.10;;;;;;6001475;23;20155;-84
2020/12/31 04:12:04;;;;;;;3.63;2.65;;;16.60;47.10;;;;;;6001056;23;20131;-83
2020/12/31 04:15:02;;;;;;;2.35;2.15;;;16.70;47.30;;;;;;6000752;23;20223;-83
2020/12/31 04:17:29;;;;;;;2.47;2.28;;;16.60;47.30;;;;;;5999786;23;20210;-83
2020/12/31 04:20:10;;;;;;;2.50;2.30;;;16.60;47.20;;;;;;5999990;23;20185;-83
2020/12/31 04:22:46;;;;;;;3.67;2.60;;;16.60;47.30;;;;;;6024547;23;20155;-83
2020/12/31 04:25:33;;;;;;;3.08;2.50;;;16.60;47.30;;;;;;6023889;23;20235;-83
2020/12/31 04:28:14;;;;;;;2.45;2.25;;;16.60;47.40;;;;;;6026805;23;20228;-83
2020/12/31 04:30:45;;;;;;;3.17;2.60;;;16.60;47.30;;;;;;6087830;23;20133;-83
2020/12/31 04:33:24;;;;;;;3.22;2.60;;;16.60;47.30;;;;;;6064594;23;20192;-84
2020/12/31 04:35:53;;;;;;;3.13;2.65;;;16.60;47.20;;;;;;6087499;23;20171;-83
2020/12/31 04:38:27;;;;;;;3.40;2.60;;;16.60;47.30;;;;;;6063143;23;20133;-83
2020/12/31 04:41:03;;;;;;;3.58;2.80;;;16.60;47.20;;;;;;6063274;23;20172;-83
2020/12/31 04:43:31;;;;;;;3.33;2.50;;;16.60;47.30;;;;;;6063823;23;20231;-83
2020/12/31 04:46:09;;;;;;;3.00;2.50;;;16.60;47.30;;;;;;6063714;23;20164;-83
2020/12/31 04:48:42;;;;;;;2.90;2.42;;;16.60;47.40;;;;;;6087517;23;20156;-83
2020/12/31 04:51:13;;;;;;;2.50;2.30;;;16.60;47.30;;;;;;6063834;23;20137;-83
2020/12/31 04:53:51;;;;;;;3.40;2.65;;;16.60;47.20;;;;;;6063021;23;20145;-83
2020/12/31 04:56:25;;;;;;;3.33;2.78;;;16.60;47.30;;;;;;6063716;23;20171;-83
2020/12/31 04:59:07;;;;;;;3.10;2.53;;;16.60;47.30;;;;;;6063359;23;20149;-83
2020/12/31 05:01:40;;;;;;;2.97;2.38;;;16.60;47.30;;;;;;6063969;23;20137;-83
2020/12/31 05:04:16;;;;;;;3.28;2.50;;;16.50;47.30;;;;;;6064325;23;20167;-83
2020/12/31 05:06:56;;;;;;;2.75;2.30;;;16.60;47.20;;;;;;6062487;23;20141;-83
2020/12/31 05:09:43;;;;;;;2.83;2.35;;;16.60;47.30;;;;;;6063728;23;20141;-83
2020/12/31 05:12:11;;;;;;;2.67;2.28;;;16.60;47.30;;;;;;6087080;23;20137;-83
2020/12/31 05:14:39;;;;;;;2.92;2.38;;;16.60;47.10;;;;;;6087162;23;20196;-83
2020/12/31 05:17:21;;;;;;;3.45;2.53;;;16.60;47.20;;;;;;6111777;23;20137;-83
2020/12/31 05:19:59;;;;;;;2.78;2.28;;;16.60;47.30;;;;;;6112892;23;20595;-82
2020/12/31 05:22:35;;;;;;;2.88;2.10;;;16.60;47.30;;;;;;6091349;23;20175;-83
2020/12/31 05:25:02;;;;;;;3.45;2.20;;;16.60;47.10;;;;;;6091671;23;20175;-83
2020/12/31 05:27:43;;;;;;;2.63;2.20;;;16.70;47.00;;;;;;6115801;23;20133;-83
2020/12/31 05:30:21;;;;;;;2.85;2.30;;;16.70;47.00;;;;;;6067628;23;20148;-83
2020/12/31 05:32:54;;;;;;;2.95;2.42;;;16.70;46.90;;;;;;6067061;23;20144;-83
2020/12/31 05:35:32;;;;;;;4.07;2.22;;;16.70;46.90;;;;;;6068087;23;20148;-83
2020/12/31 05:38:00;;;;;;;2.70;2.20;;;16.80;46.90;;;;;;6092186;23;20152;-83
2020/12/31 05:40:31;;;;;;;2.60;2.20;;;16.80;46.90;;;;;;6091999;23;20143;-83
2020/12/31 05:43:03;;;;;;;3.45;2.42;;;16.70;46.90;;;;;;6092340;23;20140;-83
2020/12/31 05:45:32;;;;;;;2.67;2.33;;;16.70;46.90;;;;;;6067423;23;20472;-83
2020/12/31 05:48:19;;;;;;;2.50;2.30;;;16.70;46.90;;;;;;6068016;23;20147;-83
2020/12/31 05:50:47;;;;;;;2.72;2.10;;;16.80;46.70;;;;;;6091944;23;20152;-83
2020/12/31 05:53:24;;;;;;;2.55;2.25;;;16.80;46.60;;;;;;6114825;23;20137;-83
2020/12/31 05:55:59;;;;;;;2.83;2.35;;;16.80;46.60;;;;;;6092879;23;20136;-83
2020/12/31 05:58:39;;;;;;;2.20;2.00;;;16.80;46.80;;;;;;6091824;23;20134;-83
2020/12/31 06:01:10;;;;;;;2.70;2.20;;;16.70;46.80;;;;;;6114953;23;20175;-83
2020/12/31 06:03:37;;;;;;;2.35;2.13;;;16.80;46.80;;;;;;6067442;23;20176;-83
2020/12/31 06:06:06;;;;;;;2.50;2.10;;;16.80;46.80;;;;;;6091191;23;20171;-83
2020/12/31 06:08:54;;;;;;;2.58;2.20;;;16.70;46.80;;;;;;6068166;23;20144;-83
2020/12/31 06:11:40;;;;;;;2.92;2.35;;;16.80;46.80;;;;;;6115712;23;20128;-82
2020/12/31 06:14:10;;;;;;;3.53;2.42;;;16.70;46.90;;;;;;6067744;23;20144;-83
2020/12/31 06:16:42;;;;;;;2.10;1.90;;;16.70;46.90;;;;;;6067680;23;20144;-83
2020/12/31 06:19:30;;;;;;;2.70;2.10;;;16.70;47.00;;;;;;6090833;23;20199;-83
2020/12/31 06:22:05;;;;;;;3.08;2.40;;;16.80;46.80;;;;;;6091030;23;20177;-83
2020/12/31 06:24:35;;;;;;;2.72;2.10;;;16.80;46.60;;;;;;6092252;23;20166;-83
2020/12/31 06:27:11;;;;;;;2.67;2.33;;;16.80;46.60;;;;;;6092539;23;20207;-83
2020/12/31 06:30:00;;;;;;;2.88;2.30;;;16.70;46.80;;;;;;6115693;23;20220;-83
2020/12/31 06:32:45;;;;;;;2.50;2.17;;;16.80;46.80;;;;;;6114935;23;20195;-82
2020/12/31 06:35:18;;;;;;;2.15;1.95;;;16.80;46.70;;;;;;6092270;23;20132;-83
2020/12/31 06:37:56;;;;;;;2.50;2.10;;;16.80;46.60;;;;;;6066784;23;20167;-83
2020/12/31 06:40:27;;;;;;;2.50;2.20;;;16.80;46.60;;;;;;6115222;23;20178;-83
2020/12/31 06:43:16;;;;;;;2.70;2.33;;;16.90;46.60;;;;;;6114939;23;20137;-83
2020/12/31 06:46:20;;;;;;;2.53;2.22;;;16.70;46.80;;;;;;6115638;23;20128;-83
2020/12/31 06:48:55;;;;;;;2.40;2.17;;;16.70;46.90;;;;;;6109978;23;20162;-83
2020/12/31 06:51:42;;;;;;;2.63;2.00;;;16.70;46.80;;;;;;6090765;23;20138;-83
2020/12/31 06:54:27;;;;;;;3.03;2.20;;;16.80;46.70;;;;;;6115352;23;20152;-82
2020/12/31 06:57:02;;;;;;;2.15;1.92;;;16.80;46.70;;;;;;6070235;23;20147;-82
2020/12/31 06:59:40;;;;;;;3.00;2.25;;;16.70;46.80;;;;;;6067655;23;20187;-83
2020/12/31 07:02:22;;;;;;;3.08;2.40;;;16.80;46.70;;;;;;6091909;23;20148;-83
2020/12/31 07:05:29;;;;;;;2.85;2.22;;;16.80;46.70;;;;;;6091122;23;20172;-83
2020/12/31 07:08:08;;;;;;;2.97;2.17;;;16.80;46.70;;;;;;6114509;23;20568;-83
2020/12/31 07:10:58;;;;;;;2.92;2.20;;;16.70;46.70;;;;;;6090407;23;20155;-83
2020/12/31 07:13:34;;;;;;;3.15;2.42;;;16.80;46.60;;;;;;6091108;23;20163;-83
2020/12/31 07:16:08;;;;;;;2.40;2.13;;;16.80;46.60;;;;;;6090918;23;20183;-83
2020/12/31 07:18:40;;;;;;;2.95;2.35;;;16.80;46.70;;;;;;6089872;23;20200;-83
2020/12/31 07:21:08;;;;;;;2.50;1.90;;;16.80;46.70;;;;;;6090334;23;20183;-83
2020/12/31 07:24:00;;;;;;;2.50;2.10;;;16.80;46.70;;;;;;6090731;23;20311;-83
2020/12/31 07:26:35;;;;;;;2.33;2.13;;;16.80;47.40;;;;;;5975901;23;20151;-83
2020/12/31 07:29:30;;;;;;;2.20;1.98;;;16.90;46.60;;;;;;6000490;23;20146;-83
2020/12/31 07:32:08;;;;;;;2.63;2.08;;;16.90;46.60;;;;;;6001952;23;20158;-83
2020/12/31 07:34:48;;;;;;;2.50;2.25;;;16.90;46.50;;;;;;6001521;23;20696;-83
2020/12/31 07:37:23;;;;;;;1.98;1.70;;;16.90;46.50;;;;;;6001777;23;20218;-83
2020/12/31 07:39:59;;;;;;;2.70;2.30;;;16.90;46.50;;;;;;6000870;23;20199;-83
2020/12/31 07:42:39;;;;;;;3.25;2.50;;;16.90;46.50;;;;;;6001845;23;20151;-83
2020/12/31 07:45:13;;;;;;;2.67;2.00;;;16.80;46.60;;;;;;6024881;23;20179;-83
2020/12/31 07:47:55;;;;;;;2.35;2.10;;;16.80;46.60;;;;;;6001476;23;20637;-83
2020/12/31 07:50:39;;;;;;;2.35;2.00;;;16.80;46.60;;;;;;6001414;23;20174;-83
2020/12/31 07:53:19;;;;;;;2.30;2.05;;;16.80;46.60;;;;;;6001268;23;20233;-83
2020/12/31 07:55:57;;;;;;;2.92;2.13;;;16.80;47.30;;;;;;6000992;23;20175;-83
2020/12/31 07:58:24;;;;;;;2.22;2.03;;;16.80;46.70;;;;;;6000684;23;20195;-82
2020/12/31 08:01:23;;;;;;;2.17;1.95;;;16.70;46.90;;;;;;6001439;23;20210;-83
2020/12/31 08:03:53;;;;;;;3.03;2.22;;;16.70;46.80;;;;;;5998041;23;20213;-83
2020/12/31 08:06:41;;;;;;;2.83;2.20;;;16.70;46.70;;;;;;6000929;23;20210;-83
2020/12/31 08:09:27;;;;;;;2.65;2.15;;;16.70;46.80;;;;;;6024679;23;20147;-82
2020/12/31 08:12:11;;;;;;;3.00;2.47;;;16.70;46.80;;;;;;5975626;23;20151;-83
2020/12/31 08:14:46;;;;;;;2.28;1.95;;;16.80;46.70;;;;;;6001445;23;20154;-83
2020/12/31 08:17:35;;;;;;;3.42;2.42;;;16.90;46.60;;;;;;5999824;23;20146;-83
2020/12/31 08:20:05;;;;;;;2.72;2.40;;;16.80;46.60;;;;;;5998411;23;20202;-83
2020/12/31 08:22:56;;;;;;;1.88;1.70;;;16.80;46.60;;;;;;5976826;23;20179;-83
2020/12/31 08:25:41;;;;;;;2.45;2.20;;;16.70;46.80;;;;;;5939950;24;20165;-83
2020/12/31 08:28:12;;;;;;;2.35;2.15;;;16.70;46.80;;;;;;5937347;24;20247;-83
2020/12/31 08:31:59;;;;;;;2.20;2.00;;;16.70;46.90;;;;;;5940115;24;20240;-83
2020/12/31 08:34:45;;;;;;;2.67;2.05;;;16.70;46.90;;;;;;5842073;24;20209;-83
2020/12/31 08:37:59;;;;;;;2.20;2.00;;;16.70;46.80;;;;;;5918075;24;20156;-83
2020/12/31 08:41:14;;;;;;;1.95;1.75;;;16.70;46.60;;;;;;5869310;24;20253;-83
2020/12/31 08:44:00;;;;;;;2.28;2.08;;;16.80;46.60;;;;;;5805889;24;20196;-83
2020/12/31 08:46:47;;;;;;;2.40;2.20;;;16.90;46.60;;;;;;5805275;24;20156;-84
2020/12/31 08:49:25;;;;;;;2.35;1.80;;;16.80;46.60;;;;;;5762334;24;20160;-83
2020/12/31 08:52:02;;;;;;;2.20;2.00;;;16.80;46.60;;;;;;5783939;24;20235;-83
2020/12/31 08:54:28;;;;;;;2.30;1.90;;;16.90;46.60;;;;;;5784369;24;20214;-83
2020/12/31 08:56:58;;;;;;;2.67;2.30;;;16.80;46.60;;;;;;5784911;24;20199;-83
2020/12/31 08:59:31;;;;;;;2.55;2.22;;;16.80;46.60;;;;;;5784333;24;20286;-83
2020/12/31 09:02:02;;;;;;;2.13;1.92;;;16.80;46.60;;;;;;5807578;24;20191;-83
2020/12/31 09:04:43;;;;;;;2.10;1.88;;;16.80;46.60;;;;;;5864011;24;20250;-83
2020/12/31 09:07:13;;;;;;;2.28;1.88;;;16.90;46.50;;;;;;5864210;24;20154;-84
2020/12/31 09:09:50;;;;;;;2.38;2.17;;;16.80;46.50;;;;;;5863944;24;20138;-83
2020/12/31 09:12:17;;;;;;;2.45;2.00;;;16.80;46.50;;;;;;5999984;23;20241;-84
2020/12/31 09:15:22;;;;;;;2.50;2.20;;;16.80;46.50;;;;;;6024011;23;20151;-83
2020/12/31 09:17:53;;;;;;;2.45;2.00;;;16.80;46.60;;;;;;5999843;23;20142;-84
2020/12/31 09:20:26;;;;;;;2.20;1.75;;;16.80;46.50;;;;;;6042550;23;20163;-83
2020/12/31 09:23:10;;;;;;;2.13;1.92;;;16.80;46.60;;;;;;6063175;23;20140;-84
2020/12/31 09:25:59;;;;;;;2.28;1.83;;;16.90;46.60;;;;;;6063244;23;20144;-83
2020/12/31 09:28:42;;;;;;;2.13;1.92;;;16.90;46.50;;;;;;6086862;23;20149;-83
2020/12/31 09:31:35;;;;;;;2.50;2.08;;;16.90;46.30;;;;;;6062933;23;20160;-83
2020/12/31 09:34:01;;;;;;;2.25;2.05;;;16.90;46.50;;;;;;6086998;23;20216;-83
2020/12/31 09:36:31;;;;;;;2.40;2.00;;;16.90;46.50;;;;;;6086928;23;20155;-83
2020/12/31 09:39:04;;;;;;;2.05;1.85;;;16.80;47.20;;;;;;6111001;23;20243;-83
2020/12/31 09:41:33;;;;;;;3.60;2.13;;;16.80;46.70;;;;;;6087239;23;20179;-83
2020/12/31 09:44:01;;;;;;;2.85;2.25;;;16.80;46.70;;;;;;6039120;23;20181;-83
2020/12/31 09:46:29;;;;;;;2.10;1.90;;;16.80;46.60;;;;;;6062423;23;20129;-83
2020/12/31 09:49:00;;;;;;;2.70;1.95;;;16.80;46.60;;;;;;6039068;23;20161;-84
2020/12/31 09:51:30;;;;;;;2.25;1.98;;;16.80;46.60;;;;;;6086206;23;20132;-84
2020/12/31 09:54:00;;;;;;;1.95;1.73;;;16.90;46.50;;;;;;6061797;23;20152;-84
2020/12/31 09:56:30;;;;;;;2.35;1.90;;;16.80;46.50;;;;;;6062606;23;20196;-83
2020/12/31 09:59:02;;;;;;;2.10;1.90;;;16.80;46.50;;;;;;6063036;23;20137;-84
2020/12/31 10:01:32;;;;;;;2.20;2.00;;;16.80;46.50;;;;;;6039460;23;20164;-83
2020/12/31 10:03:58;;;;;;;1.95;1.75;;;16.80;46.60;;;;;;6063323;23;20632;-84
2020/12/31 10:06:28;;;;;;;1.88;1.70;;;16.90;46.50;;;;;;6063211;23;20148;-84
2020/12/31 10:08:58;;;;;;;2.20;2.00;;;16.80;46.60;;;;;;6086650;23;20145;-83
2020/12/31 10:11:35;;;;;;;2.40;2.10;;;16.80;46.60;;;;;;6111470;23;20569;-83
2020/12/31 10:14:02;;;;;;;2.10;1.85;;;16.80;46.60;;;;;;6086662;23;20149;-84
2020/12/31 10:16:41;;;;;;;2.03;1.73;;;16.80;46.50;;;;;;6086796;23;20164;-83
2020/12/31 10:19:12;;;;;;;1.90;1.70;;;16.80;46.60;;;;;;6090724;23;20234;-84
2020/12/31 10:21:51;;;;;;;1.83;1.70;;;16.70;46.70;;;;;;6115583;23;20151;-83
2020/12/31 10:24:29;;;;;;;2.10;1.85;;;16.70;46.70;;;;;;6091137;23;20541;-84
2020/12/31 10:26:57;;;;;;;2.13;1.90;;;16.80;46.60;;;;;;6115248;23;20212;-83
2020/12/31 10:29:35;;;;;;;2.30;2.03;;;16.90;46.50;;;;;;6067323;23;20172;-83
2020/12/31 10:32:08;;;;;;;2.45;2.08;;;16.80;46.60;;;;;;6091445;23;20144;-83
2020/12/31 10:34:55;;;;;;;2.53;2.13;;;16.80;46.60;;;;;;6115558;23;20136;-83
2020/12/31 10:37:22;;;;;;;2.42;2.00;;;16.80;46.60;;;;;;6115054;23;20183;-83
2020/12/31 10:39:48;;;;;;;2.20;2.00;;;16.80;46.60;;;;;;6140566;23;20525;-83
2020/12/31 10:42:23;;;;;;;1.92;1.73;;;16.80;46.60;;;;;;6090188;23;20152;-84
2020/12/31 10:44:51;;;;;;;1.90;1.70;;;16.90;46.50;;;;;;6091216;23;20232;-83
2020/12/31 10:47:28;;;;;;;2.20;1.90;;;16.80;46.50;;;;;;6067758;23;20171;-83
2020/12/31 10:50:06;;;;;;;2.28;2.00;;;16.80;46.60;;;;;;6067710;23;20148;-84
2020/12/31 10:52:37;;;;;;;2.20;1.98;;;16.80;46.60;;;;;;6091844;23;20144;-83
2020/12/31 10:55:06;;;;;;;2.00;1.80;;;16.90;46.50;;;;;;6091420;23;20144;-83
2020/12/31 10:57:34;;;;;;;2.05;1.85;;;16.80;46.60;;;;;;6090416;23;20167;-83
2020/12/31 11:00:13;;;;;;;2.45;2.10;;;16.80;46.50;;;;;;6067642;23;20152;-83
2020/12/31 11:02:40;;;;;;;2.17;1.90;;;16.80;46.60;;;;;;6091578;23;20144;-83
2020/12/31 11:05:12;;;;;;;2.53;2.05;;;16.80;46.60;;;;;;6069236;23;20227;-83
2020/12/31 11:07:41;;;;;;;2.30;2.10;;;16.90;46.50;;;;;;6093581;23;20167;-83
2020/12/31 11:10:18;;;;;;;2.15;1.90;;;16.90;46.40;;;;;;6117901;23;20144;-83
2020/12/31 11:12:49;;;;;;;2.38;2.15;;;16.90;46.40;;;;;;6093735;23;20207;-84
2020/12/31 11:15:16;;;;;;;2.08;1.88;;;16.90;46.30;;;;;;6069561;23;20144;-84
2020/12/31 11:17:42;;;;;;;2.53;2.20;;;16.90;46.30;;;;;;6093553;23;20222;-83
2020/12/31 11:20:27;;;;;;;2.47;2.17;;;16.90;46.50;;;;;;6116147;23;20167;-83
2020/12/31 11:22:52;;;;;;;2.22;1.90;;;16.90;46.50;;;;;;6092843;23;20151;-83
2020/12/31 11:25:19;;;;;;;2.20;2.00;;;16.90;46.60;;;;;;6093158;23;20156;-84
2020/12/31 11:27:46;;;;;;;2.17;1.80;;;16.90;46.60;;;;;;6092213;23;20175;-84
2020/12/31 11:30:18;;;;;;;2.22;2.03;;;16.90;46.60;;;;;;6069296;23;20176;-86
2020/12/31 11:32:49;;;;;;;2.20;2.00;;;16.80;46.60;;;;;;6093446;23;20132;-83
2020/12/31 11:35:19;;;;;;;2.20;2.00;;;16.80;46.60;;;;;;6069699;23;20174;-83
2020/12/31 11:37:48;;;;;;;2.47;2.17;;;16.80;46.60;;;;;;6092554;23;20132;-83
2020/12/31 11:40:17;;;;;;;2.00;1.80;;;16.80;46.60;;;;;;6093109;23;20179;-83
2020/12/31 11:42:50;;;;;;;1.90;1.63;;;16.90;46.60;;;;;;6093117;23;20599;-84
2020/12/31 11:45:32;;;;;;;2.10;1.80;;;16.80;46.60;;;;;;6093114;23;20272;-84
2020/12/31 11:48:10;;;;;;;2.15;1.95;;;16.80;46.70;;;;;;6118714;23;20500;-83
2020/12/31 11:50:43;;;;;;;2.28;2.00;;;16.80;46.60;;;;;;6092484;23;20163;-83
2020/12/31 11:53:19;;;;;;;2.13;1.85;;;16.80;46.60;;;;;;6093458;23;20145;-84
2020/12/31 11:55:49;;;;;;;2.75;1.95;;;16.90;46.60;;;;;;6093846;23;20167;-84
2020/12/31 11:58:18;;;;;;;3.38;2.15;;;16.80;46.60;;;;;;6068473;23;20144;-83
2020/12/31 12:00:49;;;;;;;2.05;1.85;;;16.80;46.80;;;;;;6092242;23;20164;-83
2020/12/31 12:03:24;;;;;;;2.38;2.08;;;16.80;46.60;;;;;;6116797;23;20175;-83
2020/12/31 12:05:52;;;;;;;2.83;2.00;;;16.80;46.70;;;;;;6093385;23;20128;-83
2020/12/31 12:08:50;;;;;;;2.65;2.10;;;16.80;46.70;;;;;;6092746;23;20164;-84
2020/12/31 12:11:29;;;;;;;2.40;2.10;;;16.80;46.60;;;;;;6115059;23;20155;-83
2020/12/31 12:14:02;;;;;;;1.95;1.85;;;16.80;46.60;;;;;;6068843;23;20591;-84
2020/12/31 12:16:35;;;;;;;2.10;1.90;;;16.80;46.60;;;;;;6093373;23;20167;-84
2020/12/31 12:19:16;;;;;;;2.30;2.10;;;16.90;46.60;;;;;;6092341;23;20195;-83
2020/12/31 12:21:44;;;;;;;2.10;1.90;;;16.90;46.50;;;;;;6116014;23;20136;-83
2020/12/31 12:24:11;;;;;;;2.10;1.90;;;16.90;46.40;;;;;;6069149;23;20176;-83
2020/12/31 12:26:41;;;;;;;1.95;1.75;;;17.00;46.40;;;;;;6092245;23;20148;-83
2020/12/31 12:29:09;;;;;;;2.20;1.83;;;16.90;46.40;;;;;;6068209;23;20164;-83
2020/12/31 12:31:39;;;;;;;2.60;2.13;;;16.90;46.30;;;;;;6068272;23;20154;-84
2020/12/31 12:34:08;;;;;;;1.92;1.77;;;16.90;46.30;;;;;;6068713;23;20168;-83
2020/12/31 12:36:39;;;;;;;1.95;1.85;;;16.90;46.50;;;;;;6068893;23;20148;-84
2020/12/31 12:39:05;;;;;;;2.08;1.88;;;16.90;46.50;;;;;;6092858;23;20199;-83
2020/12/31 12:41:42;;;;;;;2.30;2.03;;;16.90;46.50;;;;;;6092760;23;20151;-83
2020/12/31 12:44:10;;;;;;;1.70;1.60;;;16.90;46.60;;;;;;6067073;23;20171;-83
2020/12/31 12:46:43;;;;;;;2.22;2.03;;;16.80;46.60;;;;;;6092886;23;20191;-83
2020/12/31 12:49:12;;;;;;;2.15;1.95;;;16.80;46.60;;;;;;6092130;23;20160;-83
2020/12/31 12:51:37;;;;;;;2.20;2.00;;;16.90;46.60;;;;;;6092353;23;20171;-83
2020/12/31 12:54:13;;;;;;;2.13;1.90;;;16.80;46.60;;;;;;6091981;23;20133;-84
2020/12/31 12:56:51;;;;;;;2.10;1.90;;;16.90;46.60;;;;;;6091916;23;20136;-83
2020/12/31 12:59:21;;;;;;;2.00;1.80;;;16.90;46.50;;;;;;6092265;23;20483;-83
2020/12/31 13:01:48;;;;;;;2.20;2.00;;;16.90;46.60;;;;;;6092741;23;20152;-84
2020/12/31 13:04:33;;;;;;;2.60;1.90;;;16.80;46.70;;;;;;6115744;23;20194;-83
2020/12/31 13:07:02;;;;;;;1.98;1.83;;;16.80;46.60;;;;;;6090377;23;20151;-83
2020/12/31 13:09:34;;;;;;;2.10;1.90;;;16.90;46.50;;;;;;6116378;23;20133;-84
2020/12/31 13:12:02;;;;;;;2.22;1.75;;;16.90;46.90;;;;;;6141082;23;20152;-83
2020/12/31 13:14:33;;;;;;;2.35;1.90;;;16.90;46.60;;;;;;6092187;23;20283;-83
2020/12/31 13:17:00;;;;;;;1.90;1.70;;;16.80;46.60;;;;;;6141611;23;20144;-84
2020/12/31 13:19:29;;;;;;;2.28;2.08;;;16.80;46.60;;;;;;6092372;23;20707;-83
2020/12/31 13:22:04;;;;;;;1.88;1.63;;;16.90;46.50;;;;;;6116555;23;20152;-83
2020/12/31 13:24:35;;;;;;;1.98;1.77;;;16.90;46.50;;;;;;6069575;23;20204;-83
2020/12/31 13:27:03;;;;;;;2.22;2.00;;;16.90;46.40;;;;;;6092037;23;20151;-83
2020/12/31 13:29:31;;;;;;;2.10;1.90;;;16.90;46.50;;;;;;6115150;23;20487;-83
2020/12/31 13:32:07;;;;;;;2.10;1.90;;;16.80;46.60;;;;;;6091698;23;20125;-84
2020/12/31 13:34:44;;;;;;;1.98;1.80;;;16.80;46.90;;;;;;6067210;23;20158;-83
2020/12/31 13:37:15;;;;;;;2.58;2.15;;;16.80;46.60;;;;;;6116146;23;20146;-83
2020/12/31 13:39:46;;;;;;;1.65;1.50;;;16.80;46.60;;;;;;6141865;23;20155;-84
2020/12/31 13:42:16;;;;;;;2.00;1.60;;;16.80;46.60;;;;;;6115286;23;20136;-84
2020/12/31 13:44:43;;;;;;;2.22;1.80;;;16.90;46.50;;;;;;6091592;23;20210;-83
2020/12/31 13:47:12;;;;;;;1.70;1.60;;;16.90;46.50;;;;;;6068115;23;20144;-83